sensor_id;sensor_type;location;lat;lon;timestamp;P1;durP1;ratioP1;P2;durP2;ratioP2
37831;SDS011;23671;38.090;-122.570;2023-04-24T00:01:37;13.90;;;3.00;;
37831;SDS011;23671;38.090;-122.570;2023-04-24T00:04:05;22.83;;;3.88;;
37831;SDS011;23671;38.090;-122.570;2023-04-24T00:06:36;21.13;;;4.28;;
37831;SDS011;23671;38.090;-122.570;2023-04-24T00:09:03;27.43;;;4.97;;
37831;SDS011;23671;38.090;-122.570;2023-04-24T00:11:31;18.80;;;4.32;;
37831;SDS011;23671;38.090;-122.570;2023-04-24T00:13:58;11.18;;;2.70;;
37831;SDS011;23671;38.090;-122.570;2023-04-24T00:16:25;10.43;;;2.83;;
37831;SDS011;23671;38.090;-122.570;2023-04-24T00:18:52;11.25;;;2.20;;
37831;SDS011;23671;38.090;-122.570;2023-04-24T00:21:19;11.15;;;2.53;;
37831;SDS011;23671;38.090;-122.570;2023-04-24T00:23:47;9.85;;;2.20;;
37831;SDS011;23671;38.090;-122.570;2023-04-24T00:26:15;11.32;;;2.40;;
37831;SDS011;23671;38.090;-122.570;2023-04-24T00:28:42;9.65;;;2.05;;
37831;SDS011;23671;38.090;-122.570;2023-04-24T00:31:10;13.13;;;2.28;;
37831;SDS011;23671;38.090;-122.570;2023-04-24T00:33:39;8.63;;;2.00;;
37831;SDS011;23671;38.090;-122.570;2023-04-24T00:36:07;10.68;;;2.15;;
37831;SDS011;23671;38.090;-122.570;2023-04-24T00:38:34;12.07;;;2.80;;
37831;SDS011;23671;38.090;-122.570;2023-04-24T00:41:01;9.38;;;2.45;;
37831;SDS011;23671;38.090;-122.570;2023-04-24T00:43:28;12.30;;;2.22;;
37831;SDS011;23671;38.090;-122.570;2023-04-24T00:45:55;12.52;;;2.28;;
37831;SDS011;23671;38.090;-122.570;2023-04-24T00:48:23;11.73;;;2.30;;
37831;SDS011;23671;38.090;-122.570;2023-04-24T00:50:51;13.60;;;2.40;;
37831;SDS011;23671;38.090;-122.570;2023-04-24T00:53:18;10.38;;;2.60;;
37831;SDS011;23671;38.090;-122.570;2023-04-24T00:55:46;12.07;;;2.75;;
37831;SDS011;23671;38.090;-122.570;2023-04-24T00:58:13;13.98;;;2.40;;
37831;SDS011;23671;38.090;-122.570;2023-04-24T01:00:40;14.40;;;2.47;;
37831;SDS011;23671;38.090;-122.570;2023-04-24T01:03:08;14.50;;;3.10;;
37831;SDS011;23671;38.090;-122.570;2023-04-24T01:05:36;12.60;;;2.88;;
37831;SDS011;23671;38.090;-122.570;2023-04-24T01:08:03;15.43;;;2.97;;
37831;SDS011;23671;38.090;-122.570;2023-04-24T01:10:31;12.98;;;2.42;;
37831;SDS011;23671;38.090;-122.570;2023-04-24T01:13:00;12.57;;;2.60;;
37831;SDS011;23671;38.090;-122.570;2023-04-24T01:15:27;6.95;;;2.67;;
37831;SDS011;23671;38.090;-122.570;2023-04-24T01:17:54;11.40;;;2.78;;
37831;SDS011;23671;38.090;-122.570;2023-04-24T01:20:22;7.82;;;1.98;;
37831;SDS011;23671;38.090;-122.570;2023-04-24T01:22:51;7.65;;;2.15;;
37831;SDS011;23671;38.090;-122.570;2023-04-24T01:25:21;9.02;;;2.10;;
37831;SDS011;23671;38.090;-122.570;2023-04-24T01:27:50;6.87;;;2.53;;
37831;SDS011;23671;38.090;-122.570;2023-04-24T01:30:17;7.25;;;2.22;;
37831;SDS011;23671;38.090;-122.570;2023-04-24T01:32:45;5.95;;;1.73;;
37831;SDS011;23671;38.090;-122.570;2023-04-24T01:35:12;7.53;;;2.30;;
37831;SDS011;23671;38.090;-122.570;2023-04-24T01:37:39;7.28;;;2.00;;
37831;SDS011;23671;38.090;-122.570;2023-04-24T01:40:07;7.70;;;2.10;;
37831;SDS011;23671;38.090;-122.570;2023-04-24T01:42:34;10.10;;;1.73;;
37831;SDS011;23671;38.090;-122.570;2023-04-24T01:45:03;6.93;;;1.90;;
37831;SDS011;23671;38.090;-122.570;2023-04-24T01:47:31;6.80;;;2.00;;
37831;SDS011;23671;38.090;-122.570;2023-04-24T01:49:58;7.15;;;1.67;;
37831;SDS011;23671;38.090;-122.570;2023-04-24T01:52:25;5.35;;;1.63;;
37831;SDS011;23671;38.090;-122.570;2023-04-24T01:54:54;7.53;;;2.03;;
37831;SDS011;23671;38.090;-122.570;2023-04-24T01:57:21;6.45;;;2.28;;
37831;SDS011;23671;38.090;-122.570;2023-04-24T01:59:48;7.40;;;2.20;;
37831;SDS011;23671;38.090;-122.570;2023-04-24T02:02:16;6.72;;;2.42;;
37831;SDS011;23671;38.090;-122.570;2023-04-24T02:04:43;5.88;;;1.90;;
37831;SDS011;23671;38.090;-122.570;2023-04-24T02:07:10;8.75;;;1.75;;
37831;SDS011;23671;38.090;-122.570;2023-04-24T02:09:37;5.63;;;2.08;;
37831;SDS011;23671;38.090;-122.570;2023-04-24T02:12:04;8.43;;;2.08;;
37831;SDS011;23671;38.090;-122.570;2023-04-24T02:14:31;6.38;;;2.33;;
37831;SDS011;23671;38.090;-122.570;2023-04-24T02:16:58;6.40;;;2.33;;
37831;SDS011;23671;38.090;-122.570;2023-04-24T02:19:26;6.82;;;2.30;;
37831;SDS011;23671;38.090;-122.570;2023-04-24T02:21:53;8.38;;;2.50;;
37831;SDS011;23671;38.090;-122.570;2023-04-24T02:24:20;5.00;;;1.83;;
37831;SDS011;23671;38.090;-122.570;2023-04-24T02:26:47;7.47;;;2.33;;
37831;SDS011;23671;38.090;-122.570;2023-04-24T02:29:14;7.65;;;2.53;;
37831;SDS011;23671;38.090;-122.570;2023-04-24T02:31:41;7.60;;;3.55;;
37831;SDS011;23671;38.090;-122.570;2023-04-24T02:34:08;9.05;;;3.85;;
37831;SDS011;23671;38.090;-122.570;2023-04-24T02:36:35;13.27;;;3.75;;
37831;SDS011;23671;38.090;-122.570;2023-04-24T02:39:02;6.88;;;2.83;;
37831;SDS011;23671;38.090;-122.570;2023-04-24T02:41:29;8.52;;;3.10;;
37831;SDS011;23671;38.090;-122.570;2023-04-24T02:43:58;8.43;;;3.28;;
37831;SDS011;23671;38.090;-122.570;2023-04-24T02:46:25;7.20;;;2.78;;
37831;SDS011;23671;38.090;-122.570;2023-04-24T02:48:52;7.68;;;2.88;;
37831;SDS011;23671;38.090;-122.570;2023-04-24T02:51:20;7.32;;;2.60;;
37831;SDS011;23671;38.090;-122.570;2023-04-24T02:53:47;9.13;;;3.10;;
37831;SDS011;23671;38.090;-122.570;2023-04-24T02:56:14;10.75;;;3.25;;
37831;SDS011;23671;38.090;-122.570;2023-04-24T02:58:41;6.95;;;2.40;;
37831;SDS011;23671;38.090;-122.570;2023-04-24T03:01:08;8.45;;;3.20;;
37831;SDS011;23671;38.090;-122.570;2023-04-24T03:03:36;6.72;;;2.65;;
37831;SDS011;23671;38.090;-122.570;2023-04-24T03:06:04;9.18;;;2.55;;
37831;SDS011;23671;38.090;-122.570;2023-04-24T03:08:33;5.93;;;2.25;;
37831;SDS011;23671;38.090;-122.570;2023-04-24T03:11:00;6.97;;;3.25;;
37831;SDS011;23671;38.090;-122.570;2023-04-24T03:13:27;7.72;;;2.20;;
37831;SDS011;23671;38.090;-122.570;2023-04-24T03:15:54;9.32;;;2.63;;
37831;SDS011;23671;38.090;-122.570;2023-04-24T03:18:21;9.10;;;2.83;;
37831;SDS011;23671;38.090;-122.570;2023-04-24T03:20:49;6.15;;;2.28;;
37831;SDS011;23671;38.090;-122.570;2023-04-24T03:23:16;8.55;;;2.35;;
37831;SDS011;23671;38.090;-122.570;2023-04-24T03:25:43;5.55;;;2.00;;
37831;SDS011;23671;38.090;-122.570;2023-04-24T03:28:10;8.27;;;2.50;;
37831;SDS011;23671;38.090;-122.570;2023-04-24T03:30:37;7.68;;;2.30;;
37831;SDS011;23671;38.090;-122.570;2023-04-24T03:33:04;8.90;;;2.55;;
37831;SDS011;23671;38.090;-122.570;2023-04-24T03:35:31;7.57;;;2.40;;
37831;SDS011;23671;38.090;-122.570;2023-04-24T03:37:58;7.38;;;2.35;;
37831;SDS011;23671;38.090;-122.570;2023-04-24T03:40:26;8.30;;;2.00;;
37831;SDS011;23671;38.090;-122.570;2023-04-24T03:42:54;7.13;;;2.15;;
37831;SDS011;23671;38.090;-122.570;2023-04-24T03:45:21;7.13;;;2.03;;
37831;SDS011;23671;38.090;-122.570;2023-04-24T03:47:49;7.35;;;2.33;;
37831;SDS011;23671;38.090;-122.570;2023-04-24T03:50:16;6.05;;;2.22;;
37831;SDS011;23671;38.090;-122.570;2023-04-24T03:52:43;8.68;;;2.53;;
37831;SDS011;23671;38.090;-122.570;2023-04-24T03:55:10;8.45;;;2.78;;
37831;SDS011;23671;38.090;-122.570;2023-04-24T03:57:40;7.00;;;2.10;;
37831;SDS011;23671;38.090;-122.570;2023-04-24T04:00:07;7.50;;;2.13;;
37831;SDS011;23671;38.090;-122.570;2023-04-24T04:02:35;7.90;;;2.45;;
37831;SDS011;23671;38.090;-122.570;2023-04-24T04:05:02;11.23;;;2.42;;
37831;SDS011;23671;38.090;-122.570;2023-04-24T04:07:29;7.20;;;2.33;;
37831;SDS011;23671;38.090;-122.570;2023-04-24T04:09:56;6.70;;;2.33;;
37831;SDS011;23671;38.090;-122.570;2023-04-24T04:12:23;7.60;;;2.13;;
37831;SDS011;23671;38.090;-122.570;2023-04-24T04:14:50;6.28;;;2.13;;
37831;SDS011;23671;38.090;-122.570;2023-04-24T04:17:17;10.10;;;2.58;;
37831;SDS011;23671;38.090;-122.570;2023-04-24T04:19:44;7.88;;;2.15;;
37831;SDS011;23671;38.090;-122.570;2023-04-24T04:22:11;10.77;;;2.80;;
37831;SDS011;23671;38.090;-122.570;2023-04-24T04:24:38;7.93;;;2.63;;
37831;SDS011;23671;38.090;-122.570;2023-04-24T04:27:06;8.02;;;2.38;;
37831;SDS011;23671;38.090;-122.570;2023-04-24T04:29:33;8.77;;;2.28;;
37831;SDS011;23671;38.090;-122.570;2023-04-24T04:32:01;9.50;;;2.53;;
37831;SDS011;23671;38.090;-122.570;2023-04-24T04:34:28;6.75;;;2.10;;
37831;SDS011;23671;38.090;-122.570;2023-04-24T04:36:56;9.87;;;2.33;;
37831;SDS011;23671;38.090;-122.570;2023-04-24T04:39:27;8.75;;;2.30;;
37831;SDS011;23671;38.090;-122.570;2023-04-24T04:41:55;7.57;;;2.35;;
37831;SDS011;23671;38.090;-122.570;2023-04-24T04:44:23;6.78;;;2.55;;
37831;SDS011;23671;38.090;-122.570;2023-04-24T04:46:50;10.85;;;2.33;;
37831;SDS011;23671;38.090;-122.570;2023-04-24T04:49:18;10.25;;;2.72;;
37831;SDS011;23671;38.090;-122.570;2023-04-24T04:51:47;6.95;;;2.17;;
37831;SDS011;23671;38.090;-122.570;2023-04-24T04:54:14;7.78;;;2.45;;
37831;SDS011;23671;38.090;-122.570;2023-04-24T04:56:41;8.75;;;2.47;;
37831;SDS011;23671;38.090;-122.570;2023-04-24T04:59:08;7.95;;;2.03;;
37831;SDS011;23671;38.090;-122.570;2023-04-24T05:01:36;8.95;;;2.42;;
37831;SDS011;23671;38.090;-122.570;2023-04-24T05:04:03;7.22;;;2.60;;
37831;SDS011;23671;38.090;-122.570;2023-04-24T05:06:30;7.57;;;2.13;;
37831;SDS011;23671;38.090;-122.570;2023-04-24T05:08:57;7.07;;;2.40;;
37831;SDS011;23671;38.090;-122.570;2023-04-24T05:11:24;7.78;;;2.60;;
37831;SDS011;23671;38.090;-122.570;2023-04-24T05:13:51;7.22;;;2.50;;
37831;SDS011;23671;38.090;-122.570;2023-04-24T05:16:18;8.27;;;2.83;;
37831;SDS011;23671;38.090;-122.570;2023-04-24T05:18:45;7.07;;;2.55;;
37831;SDS011;23671;38.090;-122.570;2023-04-24T05:21:12;8.07;;;2.40;;
37831;SDS011;23671;38.090;-122.570;2023-04-24T05:23:39;7.38;;;2.67;;
37831;SDS011;23671;38.090;-122.570;2023-04-24T05:26:06;8.70;;;2.42;;
37831;SDS011;23671;38.090;-122.570;2023-04-24T05:28:33;7.10;;;2.22;;
37831;SDS011;23671;38.090;-122.570;2023-04-24T05:31:02;6.40;;;2.17;;
37831;SDS011;23671;38.090;-122.570;2023-04-24T05:33:29;7.28;;;1.98;;
37831;SDS011;23671;38.090;-122.570;2023-04-24T05:35:56;9.15;;;2.72;;
37831;SDS011;23671;38.090;-122.570;2023-04-24T05:38:23;10.23;;;2.72;;
37831;SDS011;23671;38.090;-122.570;2023-04-24T05:40:50;8.43;;;2.42;;
37831;SDS011;23671;38.090;-122.570;2023-04-24T05:43:17;8.45;;;2.35;;
37831;SDS011;23671;38.090;-122.570;2023-04-24T05:45:45;7.15;;;2.22;;
37831;SDS011;23671;38.090;-122.570;2023-04-24T05:48:12;11.65;;;2.70;;
37831;SDS011;23671;38.090;-122.570;2023-04-24T05:50:39;8.38;;;2.97;;
37831;SDS011;23671;38.090;-122.570;2023-04-24T05:53:06;10.02;;;2.22;;
37831;SDS011;23671;38.090;-122.570;2023-04-24T05:55:33;10.10;;;2.70;;
37831;SDS011;23671;38.090;-122.570;2023-04-24T05:58:01;8.30;;;2.33;;
37831;SDS011;23671;38.090;-122.570;2023-04-24T06:00:28;11.48;;;2.92;;
37831;SDS011;23671;38.090;-122.570;2023-04-24T06:02:55;9.57;;;2.20;;
37831;SDS011;23671;38.090;-122.570;2023-04-24T06:05:22;10.13;;;2.53;;
37831;SDS011;23671;38.090;-122.570;2023-04-24T06:07:49;8.70;;;2.65;;
37831;SDS011;23671;38.090;-122.570;2023-04-24T06:10:17;7.93;;;2.22;;
37831;SDS011;23671;38.090;-122.570;2023-04-24T06:12:44;8.10;;;2.17;;
37831;SDS011;23671;38.090;-122.570;2023-04-24T06:15:11;9.20;;;2.65;;
37831;SDS011;23671;38.090;-122.570;2023-04-24T06:17:38;11.10;;;2.60;;
37831;SDS011;23671;38.090;-122.570;2023-04-24T06:20:05;8.57;;;2.25;;
37831;SDS011;23671;38.090;-122.570;2023-04-24T06:22:33;7.95;;;2.40;;
37831;SDS011;23671;38.090;-122.570;2023-04-24T06:25:00;8.23;;;2.63;;
37831;SDS011;23671;38.090;-122.570;2023-04-24T06:27:27;8.02;;;2.25;;
37831;SDS011;23671;38.090;-122.570;2023-04-24T06:29:55;8.90;;;2.40;;
37831;SDS011;23671;38.090;-122.570;2023-04-24T06:32:22;10.73;;;2.63;;
37831;SDS011;23671;38.090;-122.570;2023-04-24T06:34:52;5.88;;;2.13;;
37831;SDS011;23671;38.090;-122.570;2023-04-24T06:37:22;9.23;;;2.30;;
37831;SDS011;23671;38.090;-122.570;2023-04-24T06:39:49;6.95;;;2.15;;
37831;SDS011;23671;38.090;-122.570;2023-04-24T06:42:16;9.50;;;2.60;;
37831;SDS011;23671;38.090;-122.570;2023-04-24T06:47:12;8.20;;;2.08;;
37831;SDS011;23671;38.090;-122.570;2023-04-24T06:49:39;7.50;;;2.08;;
37831;SDS011;23671;38.090;-122.570;2023-04-24T06:52:07;8.35;;;2.33;;
37831;SDS011;23671;38.090;-122.570;2023-04-24T06:54:34;7.90;;;2.47;;
37831;SDS011;23671;38.090;-122.570;2023-04-24T06:57:01;8.02;;;2.20;;
37831;SDS011;23671;38.090;-122.570;2023-04-24T06:59:29;6.78;;;1.88;;
37831;SDS011;23671;38.090;-122.570;2023-04-24T07:01:56;6.53;;;2.28;;
37831;SDS011;23671;38.090;-122.570;2023-04-24T07:04:23;7.55;;;2.08;;
37831;SDS011;23671;38.090;-122.570;2023-04-24T07:06:50;6.03;;;2.10;;
37831;SDS011;23671;38.090;-122.570;2023-04-24T07:09:19;8.15;;;1.80;;
37831;SDS011;23671;38.090;-122.570;2023-04-24T07:11:47;7.07;;;2.05;;
37831;SDS011;23671;38.090;-122.570;2023-04-24T07:14:14;4.57;;;2.15;;
37831;SDS011;23671;38.090;-122.570;2023-04-24T07:16:41;7.93;;;2.20;;
37831;SDS011;23671;38.090;-122.570;2023-04-24T07:19:09;7.15;;;2.08;;
37831;SDS011;23671;38.090;-122.570;2023-04-24T07:21:36;6.75;;;2.17;;
37831;SDS011;23671;38.090;-122.570;2023-04-24T07:24:03;9.95;;;2.47;;
37831;SDS011;23671;38.090;-122.570;2023-04-24T07:26:30;6.60;;;2.13;;
37831;SDS011;23671;38.090;-122.570;2023-04-24T07:28:57;6.22;;;2.17;;
37831;SDS011;23671;38.090;-122.570;2023-04-24T07:31:25;7.25;;;2.08;;
37831;SDS011;23671;38.090;-122.570;2023-04-24T07:33:52;5.22;;;1.63;;
37831;SDS011;23671;38.090;-122.570;2023-04-24T07:36:19;6.35;;;2.17;;
37831;SDS011;23671;38.090;-122.570;2023-04-24T07:38:46;6.35;;;2.20;;
37831;SDS011;23671;38.090;-122.570;2023-04-24T07:41:13;4.43;;;2.17;;
37831;SDS011;23671;38.090;-122.570;2023-04-24T07:43:41;8.13;;;2.50;;
37831;SDS011;23671;38.090;-122.570;2023-04-24T07:46:08;6.15;;;2.17;;
37831;SDS011;23671;38.090;-122.570;2023-04-24T07:48:35;8.07;;;2.00;;
37831;SDS011;23671;38.090;-122.570;2023-04-24T07:51:02;5.53;;;1.70;;
37831;SDS011;23671;38.090;-122.570;2023-04-24T07:53:29;8.02;;;2.08;;
37831;SDS011;23671;38.090;-122.570;2023-04-24T07:55:56;6.68;;;1.77;;
37831;SDS011;23671;38.090;-122.570;2023-04-24T07:58:24;4.57;;;1.80;;
37831;SDS011;23671;38.090;-122.570;2023-04-24T08:00:51;8.52;;;1.92;;
37831;SDS011;23671;38.090;-122.570;2023-04-24T08:03:18;5.53;;;1.83;;
37831;SDS011;23671;38.090;-122.570;2023-04-24T08:05:45;7.15;;;2.03;;
37831;SDS011;23671;38.090;-122.570;2023-04-24T08:08:13;6.70;;;1.95;;
37831;SDS011;23671;38.090;-122.570;2023-04-24T08:10:40;5.65;;;1.75;;
37831;SDS011;23671;38.090;-122.570;2023-04-24T08:13:07;6.40;;;1.73;;
37831;SDS011;23671;38.090;-122.570;2023-04-24T08:15:34;5.78;;;1.70;;
37831;SDS011;23671;38.090;-122.570;2023-04-24T08:18:01;5.38;;;1.70;;
37831;SDS011;23671;38.090;-122.570;2023-04-24T08:20:28;7.70;;;2.22;;
37831;SDS011;23671;38.090;-122.570;2023-04-24T08:22:55;5.05;;;1.80;;
37831;SDS011;23671;38.090;-122.570;2023-04-24T08:25:22;9.05;;;2.08;;
37831;SDS011;23671;38.090;-122.570;2023-04-24T08:27:50;6.53;;;1.88;;
37831;SDS011;23671;38.090;-122.570;2023-04-24T08:30:17;8.68;;;2.10;;
37831;SDS011;23671;38.090;-122.570;2023-04-24T08:32:44;4.70;;;1.75;;
37831;SDS011;23671;38.090;-122.570;2023-04-24T08:35:11;5.97;;;1.75;;
37831;SDS011;23671;38.090;-122.570;2023-04-24T08:37:38;5.10;;;1.50;;
37831;SDS011;23671;38.090;-122.570;2023-04-24T08:40:13;9.48;;;1.90;;
37831;SDS011;23671;38.090;-122.570;2023-04-24T08:42:44;6.28;;;1.75;;
37831;SDS011;23671;38.090;-122.570;2023-04-24T08:45:11;8.05;;;1.92;;
37831;SDS011;23671;38.090;-122.570;2023-04-24T08:47:39;8.18;;;2.03;;
37831;SDS011;23671;38.090;-122.570;2023-04-24T08:50:08;7.87;;;1.90;;
37831;SDS011;23671;38.090;-122.570;2023-04-24T08:52:36;7.10;;;1.90;;
37831;SDS011;23671;38.090;-122.570;2023-04-24T08:55:03;5.75;;;1.80;;
37831;SDS011;23671;38.090;-122.570;2023-04-24T08:57:31;8.02;;;1.98;;
37831;SDS011;23671;38.090;-122.570;2023-04-24T09:00:01;6.43;;;1.98;;
37831;SDS011;23671;38.090;-122.570;2023-04-24T09:02:28;6.00;;;2.05;;
37831;SDS011;23671;38.090;-122.570;2023-04-24T09:04:57;7.32;;;2.05;;
37831;SDS011;23671;38.090;-122.570;2023-04-24T09:07:24;6.18;;;1.73;;
37831;SDS011;23671;38.090;-122.570;2023-04-24T09:09:56;4.85;;;1.70;;
37831;SDS011;23671;38.090;-122.570;2023-04-24T09:12:24;5.80;;;1.70;;
37831;SDS011;23671;38.090;-122.570;2023-04-24T09:14:51;6.38;;;1.67;;
37831;SDS011;23671;38.090;-122.570;2023-04-24T09:17:20;7.28;;;2.10;;
37831;SDS011;23671;38.090;-122.570;2023-04-24T09:19:48;6.85;;;2.13;;
37831;SDS011;23671;38.090;-122.570;2023-04-24T09:22:15;6.75;;;1.80;;
37831;SDS011;23671;38.090;-122.570;2023-04-24T09:24:42;6.35;;;1.63;;
37831;SDS011;23671;38.090;-122.570;2023-04-24T09:27:11;7.13;;;2.70;;
37831;SDS011;23671;38.090;-122.570;2023-04-24T09:29:53;12.40;;;3.00;;
37831;SDS011;23671;38.090;-122.570;2023-04-24T09:32:21;8.25;;;1.95;;
37831;SDS011;23671;38.090;-122.570;2023-04-24T09:35:12;7.70;;;1.77;;
37831;SDS011;23671;38.090;-122.570;2023-04-24T09:37:43;4.80;;;1.67;;
37831;SDS011;23671;38.090;-122.570;2023-04-24T09:40:16;5.15;;;1.55;;
37831;SDS011;23671;38.090;-122.570;2023-04-24T09:42:45;6.25;;;2.13;;
37831;SDS011;23671;38.090;-122.570;2023-04-24T09:45:20;4.60;;;1.75;;
37831;SDS011;23671;38.090;-122.570;2023-04-24T09:47:51;5.00;;;1.90;;
37831;SDS011;23671;38.090;-122.570;2023-04-24T09:50:19;6.45;;;2.13;;
37831;SDS011;23671;38.090;-122.570;2023-04-24T09:52:55;7.78;;;2.00;;
37831;SDS011;23671;38.090;-122.570;2023-04-24T09:55:27;5.20;;;2.00;;
37831;SDS011;23671;38.090;-122.570;2023-04-24T09:57:58;8.25;;;2.05;;
37831;SDS011;23671;38.090;-122.570;2023-04-24T10:00:27;6.72;;;1.55;;
37831;SDS011;23671;38.090;-122.570;2023-04-24T10:02:57;6.82;;;1.80;;
37831;SDS011;23671;38.090;-122.570;2023-04-24T10:05:34;7.28;;;2.08;;
37831;SDS011;23671;38.090;-122.570;2023-04-24T10:08:03;6.72;;;1.65;;
37831;SDS011;23671;38.090;-122.570;2023-04-24T10:13:00;9.05;;;1.80;;
37831;SDS011;23671;38.090;-122.570;2023-04-24T10:15:28;7.00;;;1.77;;
37831;SDS011;23671;38.090;-122.570;2023-04-24T10:17:55;6.18;;;1.92;;
37831;SDS011;23671;38.090;-122.570;2023-04-24T10:20:26;8.35;;;2.05;;
37831;SDS011;23671;38.090;-122.570;2023-04-24T10:22:57;5.88;;;1.90;;
37831;SDS011;23671;38.090;-122.570;2023-04-24T10:25:26;5.97;;;1.70;;
37831;SDS011;23671;38.090;-122.570;2023-04-24T10:27:58;4.50;;;1.65;;
37831;SDS011;23671;38.090;-122.570;2023-04-24T10:30:26;7.40;;;2.00;;
37831;SDS011;23671;38.090;-122.570;2023-04-24T10:35:22;4.80;;;1.45;;
37831;SDS011;23671;38.090;-122.570;2023-04-24T10:37:56;5.55;;;1.58;;
37831;SDS011;23671;38.090;-122.570;2023-04-24T10:40:29;6.35;;;1.83;;
37831;SDS011;23671;38.090;-122.570;2023-04-24T10:43:04;6.65;;;1.75;;
37831;SDS011;23671;38.090;-122.570;2023-04-24T10:45:39;7.03;;;2.47;;
37831;SDS011;23671;38.090;-122.570;2023-04-24T10:48:09;7.40;;;2.63;;
37831;SDS011;23671;38.090;-122.570;2023-04-24T10:50:42;5.70;;;1.75;;
37831;SDS011;23671;38.090;-122.570;2023-04-24T10:53:17;5.93;;;2.00;;
37831;SDS011;23671;38.090;-122.570;2023-04-24T10:55:47;5.47;;;2.10;;
37831;SDS011;23671;38.090;-122.570;2023-04-24T10:58:22;7.43;;;1.73;;
37831;SDS011;23671;38.090;-122.570;2023-04-24T11:00:57;7.47;;;2.53;;
37831;SDS011;23671;38.090;-122.570;2023-04-24T11:03:26;3.90;;;1.80;;
37831;SDS011;23671;38.090;-122.570;2023-04-24T11:06:07;7.15;;;1.95;;
37831;SDS011;23671;38.090;-122.570;2023-04-24T11:08:45;7.15;;;1.90;;
37831;SDS011;23671;38.090;-122.570;2023-04-24T11:11:17;5.72;;;2.42;;
37831;SDS011;23671;38.090;-122.570;2023-04-24T11:19:05;7.15;;;2.08;;
37831;SDS011;23671;38.090;-122.570;2023-04-24T11:24:29;5.03;;;1.75;;
37831;SDS011;23671;38.090;-122.570;2023-04-24T11:26:59;6.65;;;1.98;;
37831;SDS011;23671;38.090;-122.570;2023-04-24T11:29:39;6.18;;;2.10;;
37831;SDS011;23671;38.090;-122.570;2023-04-24T11:32:15;4.97;;;1.83;;
37831;SDS011;23671;38.090;-122.570;2023-04-24T11:34:48;4.50;;;1.73;;
37831;SDS011;23671;38.090;-122.570;2023-04-24T11:37:17;7.45;;;1.95;;
37831;SDS011;23671;38.090;-122.570;2023-04-24T11:39:44;5.15;;;1.60;;
37831;SDS011;23671;38.090;-122.570;2023-04-24T11:42:14;6.90;;;1.70;;
37831;SDS011;23671;38.090;-122.570;2023-04-24T11:44:41;6.10;;;1.75;;
37831;SDS011;23671;38.090;-122.570;2023-04-24T11:47:09;10.50;;;1.90;;
37831;SDS011;23671;38.090;-122.570;2023-04-24T11:49:39;6.38;;;1.85;;
37831;SDS011;23671;38.090;-122.570;2023-04-24T11:52:06;7.43;;;1.83;;
37831;SDS011;23671;38.090;-122.570;2023-04-24T11:54:33;5.85;;;1.88;;
37831;SDS011;23671;38.090;-122.570;2023-04-24T11:57:03;7.85;;;2.03;;
37831;SDS011;23671;38.090;-122.570;2023-04-24T11:59:37;5.70;;;2.33;;
37831;SDS011;23671;38.090;-122.570;2023-04-24T12:02:04;4.97;;;1.63;;
37831;SDS011;23671;38.090;-122.570;2023-04-24T12:04:38;9.25;;;1.83;;
37831;SDS011;23671;38.090;-122.570;2023-04-24T12:07:06;7.20;;;2.00;;
37831;SDS011;23671;38.090;-122.570;2023-04-24T12:09:43;4.30;;;1.75;;
37831;SDS011;23671;38.090;-122.570;2023-04-24T12:12:12;7.78;;;2.15;;
37831;SDS011;23671;38.090;-122.570;2023-04-24T12:14:49;7.07;;;1.80;;
37831;SDS011;23671;38.090;-122.570;2023-04-24T12:17:24;6.38;;;1.65;;
37831;SDS011;23671;38.090;-122.570;2023-04-24T12:20:03;6.32;;;2.00;;
37831;SDS011;23671;38.090;-122.570;2023-04-24T12:22:48;6.88;;;1.90;;
37831;SDS011;23671;38.090;-122.570;2023-04-24T12:25:19;6.38;;;2.05;;
37831;SDS011;23671;38.090;-122.570;2023-04-24T12:27:52;5.68;;;1.90;;
37831;SDS011;23671;38.090;-122.570;2023-04-24T12:30:29;6.35;;;2.35;;
37831;SDS011;23671;38.090;-122.570;2023-04-24T12:32:58;6.40;;;1.90;;
37831;SDS011;23671;38.090;-122.570;2023-04-24T12:35:27;9.38;;;2.08;;
37831;SDS011;23671;38.090;-122.570;2023-04-24T12:38:06;7.38;;;2.10;;
37831;SDS011;23671;38.090;-122.570;2023-04-24T12:40:33;6.45;;;1.70;;
37831;SDS011;23671;38.090;-122.570;2023-04-24T12:43:01;6.45;;;1.80;;
37831;SDS011;23671;38.090;-122.570;2023-04-24T12:45:38;6.43;;;2.13;;
37831;SDS011;23671;38.090;-122.570;2023-04-24T12:48:05;6.80;;;2.00;;
37831;SDS011;23671;38.090;-122.570;2023-04-24T12:50:32;5.65;;;2.00;;
37831;SDS011;23671;38.090;-122.570;2023-04-24T12:52:59;9.70;;;2.42;;
37831;SDS011;23671;38.090;-122.570;2023-04-24T12:55:26;10.15;;;2.05;;
37831;SDS011;23671;38.090;-122.570;2023-04-24T12:57:53;7.18;;;2.10;;
37831;SDS011;23671;38.090;-122.570;2023-04-24T13:00:21;8.13;;;2.10;;
37831;SDS011;23671;38.090;-122.570;2023-04-24T13:02:48;9.40;;;2.00;;
37831;SDS011;23671;38.090;-122.570;2023-04-24T13:05:15;7.13;;;1.80;;
37831;SDS011;23671;38.090;-122.570;2023-04-24T13:07:42;6.50;;;1.65;;
37831;SDS011;23671;38.090;-122.570;2023-04-24T13:10:09;6.85;;;2.20;;
37831;SDS011;23671;38.090;-122.570;2023-04-24T13:12:38;9.43;;;2.70;;
37831;SDS011;23671;38.090;-122.570;2023-04-24T13:15:06;8.63;;;2.13;;
37831;SDS011;23671;38.090;-122.570;2023-04-24T13:17:33;8.25;;;1.90;;
37831;SDS011;23671;38.090;-122.570;2023-04-24T13:20:00;6.43;;;1.77;;
37831;SDS011;23671;38.090;-122.570;2023-04-24T13:22:28;7.03;;;2.05;;
37831;SDS011;23671;38.090;-122.570;2023-04-24T13:24:55;4.75;;;1.77;;
37831;SDS011;23671;38.090;-122.570;2023-04-24T13:27:22;8.38;;;1.83;;
37831;SDS011;23671;38.090;-122.570;2023-04-24T13:29:49;6.80;;;2.08;;
37831;SDS011;23671;38.090;-122.570;2023-04-24T13:32:16;7.85;;;2.38;;
37831;SDS011;23671;38.090;-122.570;2023-04-24T13:34:43;7.57;;;2.08;;
37831;SDS011;23671;38.090;-122.570;2023-04-24T13:37:10;7.35;;;1.85;;
37831;SDS011;23671;38.090;-122.570;2023-04-24T13:39:37;6.40;;;1.80;;
37831;SDS011;23671;38.090;-122.570;2023-04-24T13:42:06;6.57;;;1.77;;
37831;SDS011;23671;38.090;-122.570;2023-04-24T13:44:34;7.95;;;2.15;;
37831;SDS011;23671;38.090;-122.570;2023-04-24T13:47:01;6.57;;;1.80;;
37831;SDS011;23671;38.090;-122.570;2023-04-24T13:49:28;5.10;;;1.83;;
37831;SDS011;23671;38.090;-122.570;2023-04-24T13:51:55;4.28;;;1.40;;
37831;SDS011;23671;38.090;-122.570;2023-04-24T13:54:22;7.68;;;2.13;;
37831;SDS011;23671;38.090;-122.570;2023-04-24T13:56:51;7.07;;;1.90;;
37831;SDS011;23671;38.090;-122.570;2023-04-24T13:59:22;4.85;;;1.83;;
37831;SDS011;23671;38.090;-122.570;2023-04-24T14:01:49;6.97;;;1.95;;
37831;SDS011;23671;38.090;-122.570;2023-04-24T14:04:16;7.30;;;2.13;;
37831;SDS011;23671;38.090;-122.570;2023-04-24T14:06:43;7.75;;;2.08;;
37831;SDS011;23671;38.090;-122.570;2023-04-24T14:09:10;6.32;;;1.90;;
37831;SDS011;23671;38.090;-122.570;2023-04-24T14:11:38;5.82;;;1.90;;
37831;SDS011;23671;38.090;-122.570;2023-04-24T14:14:05;5.78;;;2.10;;
37831;SDS011;23671;38.090;-122.570;2023-04-24T14:16:33;5.28;;;1.75;;
37831;SDS011;23671;38.090;-122.570;2023-04-24T14:19:00;5.45;;;1.60;;
37831;SDS011;23671;38.090;-122.570;2023-04-24T14:21:27;5.57;;;1.75;;
37831;SDS011;23671;38.090;-122.570;2023-04-24T14:23:55;3.67;;;1.65;;
37831;SDS011;23671;38.090;-122.570;2023-04-24T14:26:22;4.82;;;1.63;;
37831;SDS011;23671;38.090;-122.570;2023-04-24T14:28:50;5.15;;;1.50;;